Portada
METAR-TAF:

METAR-TAF

Aeroports :

Lossiemouth, Escòcia

latitud: 57-43N, longitud: 003-19W, altitud: 13 m

Observació

L'informe es va fer fa 51 minuts, a les 20:50 UTC
Vent 5 kt del Sud/Sud-Est
Temperatura 2°C
Humitat 75%
Pressió 1010 hPa
Visibilitat 10 km o més
sense núvols per sota de 1500 mi sense presència de cumulonimbus.

METAR: EGQS 192050Z 16005KT CAVOK 02/M02 Q1010 RMK BLU

Hora: 21:41 (21:41 UTC)

Pronòstic

L'informe es va fer fa 2 hores i 32 minuts, a les 19:09 UTC
Pronòstic vàlid del 19 a les 21 UTC al 20 a les 15 UTC
Vent 8 kt del Sud/Sud-Est
Visibilitat 10 km o més
Escasses núvols a una alçada de 4500 ft

TAF: EGQS 191909Z 1921/2015 15008KT 9999 FEW045

Observacions i pronòstics meteorològics de més de 4000 aeroports (METAR i TAF).

Les estacions disponibles són els punts grocs i vermells al mapa.

Posi el ratolí al punt desitjat per veure el nom de l'estació.

Feu clic per veure les observacions i els pronòstics meteorològics.

Per canviar el mapa: feu clic els botons verds amb una creu de color negre per apropar; al botó verd amb un guió per allunyar la imatge; o en les fletxes verdes per a mapes adjacents.


METAR-TAF: